sensor_id;sensor_type;location;lat;lon;timestamp;P1;durP1;ratioP1;P2;durP2;ratioP2
71174;SDS011;58876;51.994;4.472;2022-09-02T00:00:51;350.45;;;350.45;;
71174;SDS011;58876;51.994;4.472;2022-09-02T00:03:19;315.11;;;315.11;;
71174;SDS011;58876;51.994;4.472;2022-09-02T00:05:45;319.96;;;319.96;;
71174;SDS011;58876;51.994;4.472;2022-09-02T00:08:11;329.15;;;329.15;;
71174;SDS011;58876;51.994;4.472;2022-09-02T00:10:38;367.82;;;367.82;;
71174;SDS011;58876;51.994;4.472;2022-09-02T00:13:07;427.51;;;427.51;;
71174;SDS011;58876;51.994;4.472;2022-09-02T00:15:34;516.49;;;516.49;;
71174;SDS011;58876;51.994;4.472;2022-09-02T00:18:00;490.30;;;490.30;;
71174;SDS011;58876;51.994;4.472;2022-09-02T00:20:26;484.94;;;484.94;;
71174;SDS011;58876;51.994;4.472;2022-09-02T00:22:53;462.17;;;462.17;;
71174;SDS011;58876;51.994;4.472;2022-09-02T00:25:18;520.65;;;520.65;;
71174;SDS011;58876;51.994;4.472;2022-09-02T00:27:44;512.20;;;512.20;;
71174;SDS011;58876;51.994;4.472;2022-09-02T00:30:10;517.93;;;517.93;;
71174;SDS011;58876;51.994;4.472;2022-09-02T00:32:36;487.92;;;487.92;;
71174;SDS011;58876;51.994;4.472;2022-09-02T00:35:02;526.97;;;526.97;;
71174;SDS011;58876;51.994;4.472;2022-09-02T00:37:27;642.77;;;642.77;;
71174;SDS011;58876;51.994;4.472;2022-09-02T00:39:53;692.33;;;692.33;;
71174;SDS011;58876;51.994;4.472;2022-09-02T00:42:20;665.45;;;665.45;;
71174;SDS011;58876;51.994;4.472;2022-09-02T00:44:47;740.93;;;740.93;;
71174;SDS011;58876;51.994;4.472;2022-09-02T00:47:13;818.15;;;818.15;;
71174;SDS011;58876;51.994;4.472;2022-09-02T00:49:40;813.25;;;813.25;;
71174;SDS011;58876;51.994;4.472;2022-09-02T00:55:07;803.81;;;803.81;;
71174;SDS011;58876;51.994;4.472;2022-09-02T00:57:44;847.30;;;847.30;;
71174;SDS011;58876;51.994;4.472;2022-09-02T01:00:20;938.72;;;938.72;;
71174;SDS011;58876;51.994;4.472;2022-09-02T01:03:01;1034.49;;;1034.49;;
71174;SDS011;58876;51.994;4.472;2022-09-02T01:05:36;1010.28;;;1010.28;;
71174;SDS011;58876;51.994;4.472;2022-09-02T01:08:08;994.46;;;994.46;;
71174;SDS011;58876;51.994;4.472;2022-09-02T01:10:34;966.25;;;966.25;;
71174;SDS011;58876;51.994;4.472;2022-09-02T01:13:03;959.19;;;959.19;;
71174;SDS011;58876;51.994;4.472;2022-09-02T01:15:33;975.56;;;975.56;;
71174;SDS011;58876;51.994;4.472;2022-09-02T01:18:02;923.10;;;923.10;;
71174;SDS011;58876;51.994;4.472;2022-09-02T01:20:29;874.09;;;874.09;;
71174;SDS011;58876;51.994;4.472;2022-09-02T01:22:56;913.52;;;913.52;;
71174;SDS011;58876;51.994;4.472;2022-09-02T01:25:32;894.33;;;894.33;;
71174;SDS011;58876;51.994;4.472;2022-09-02T01:28:09;868.32;;;868.32;;
71174;SDS011;58876;51.994;4.472;2022-09-02T01:30:38;856.00;;;856.00;;
71174;SDS011;58876;51.994;4.472;2022-09-02T01:33:10;856.07;;;856.07;;
71174;SDS011;58876;51.994;4.472;2022-09-02T01:35:36;877.79;;;877.79;;
71174;SDS011;58876;51.994;4.472;2022-09-02T01:38:02;885.98;;;885.98;;
71174;SDS011;58876;51.994;4.472;2022-09-02T01:40:29;939.69;;;939.69;;
71174;SDS011;58876;51.994;4.472;2022-09-02T01:42:58;997.10;;;997.10;;
71174;SDS011;58876;51.994;4.472;2022-09-02T01:45:30;1011.60;;;1011.60;;
71174;SDS011;58876;51.994;4.472;2022-09-02T01:47:56;967.70;;;967.70;;
71174;SDS011;58876;51.994;4.472;2022-09-02T01:50:22;966.70;;;966.70;;
71174;SDS011;58876;51.994;4.472;2022-09-02T01:52:47;1002.01;;;1002.01;;
71174;SDS011;58876;51.994;4.472;2022-09-02T01:55:13;1004.80;;;1004.80;;
71174;SDS011;58876;51.994;4.472;2022-09-02T01:57:38;1026.51;;;1026.51;;
71174;SDS011;58876;51.994;4.472;2022-09-02T02:00:05;974.42;;;974.42;;
71174;SDS011;58876;51.994;4.472;2022-09-02T02:02:33;1012.52;;;1012.52;;
71174;SDS011;58876;51.994;4.472;2022-09-02T02:04:58;1125.94;;;1125.94;;
71174;SDS011;58876;51.994;4.472;2022-09-02T02:07:24;1230.90;;;1230.90;;
71174;SDS011;58876;51.994;4.472;2022-09-02T02:09:49;1261.66;;;1261.66;;
71174;SDS011;58876;51.994;4.472;2022-09-02T02:12:18;1301.39;;;1301.39;;
71174;SDS011;58876;51.994;4.472;2022-09-02T02:14:44;1269.69;;;1269.69;;
71174;SDS011;58876;51.994;4.472;2022-09-02T02:17:09;1267.64;;;1267.64;;
71174;SDS011;58876;51.994;4.472;2022-09-02T02:19:35;1224.58;;;1224.58;;
71174;SDS011;58876;51.994;4.472;2022-09-02T02:22:02;1231.53;;;1231.53;;
71174;SDS011;58876;51.994;4.472;2022-09-02T02:24:28;1175.71;;;1175.71;;
71174;SDS011;58876;51.994;4.472;2022-09-02T02:26:54;1187.42;;;1187.42;;
71174;SDS011;58876;51.994;4.472;2022-09-02T02:29:20;1227.08;;;1227.08;;
71174;SDS011;58876;51.994;4.472;2022-09-02T02:31:47;1257.79;;;1257.79;;
71174;SDS011;58876;51.994;4.472;2022-09-02T02:34:13;1202.15;;;1202.15;;
71174;SDS011;58876;51.994;4.472;2022-09-02T02:36:39;1183.57;;;1183.57;;
71174;SDS011;58876;51.994;4.472;2022-09-02T02:39:06;1170.51;;;1170.51;;
71174;SDS011;58876;51.994;4.472;2022-09-02T02:41:34;1196.90;;;1196.90;;
71174;SDS011;58876;51.994;4.472;2022-09-02T02:44:00;1154.59;;;1154.59;;
71174;SDS011;58876;51.994;4.472;2022-09-02T02:46:25;1179.29;;;1179.29;;
71174;SDS011;58876;51.994;4.472;2022-09-02T02:48:51;1184.31;;;1184.31;;
71174;SDS011;58876;51.994;4.472;2022-09-02T02:51:16;1284.68;;;1284.68;;
71174;SDS011;58876;51.994;4.472;2022-09-02T02:53:42;1384.03;;;1384.03;;
71174;SDS011;58876;51.994;4.472;2022-09-02T02:56:07;1412.83;;;1412.83;;
71174;SDS011;58876;51.994;4.472;2022-09-02T02:58:34;1384.46;;;1384.46;;
71174;SDS011;58876;51.994;4.472;2022-09-02T03:00:59;1390.10;;;1390.10;;
71174;SDS011;58876;51.994;4.472;2022-09-02T03:03:25;1416.64;;;1416.64;;
71174;SDS011;58876;51.994;4.472;2022-09-02T03:05:52;1435.74;;;1435.74;;
71174;SDS011;58876;51.994;4.472;2022-09-02T03:08:18;1468.47;;;1468.47;;
71174;SDS011;58876;51.994;4.472;2022-09-02T03:10:45;1503.21;;;1503.21;;
71174;SDS011;58876;51.994;4.472;2022-09-02T03:13:24;1489.36;;;1489.36;;
71174;SDS011;58876;51.994;4.472;2022-09-02T03:15:51;1476.12;;;1476.12;;
71174;SDS011;58876;51.994;4.472;2022-09-02T03:18:16;1481.22;;;1481.22;;
71174;SDS011;58876;51.994;4.472;2022-09-02T03:20:43;1524.59;;;1524.59;;
71174;SDS011;58876;51.994;4.472;2022-09-02T03:23:09;1496.65;;;1496.65;;
71174;SDS011;58876;51.994;4.472;2022-09-02T03:25:36;1457.09;;;1457.09;;
71174;SDS011;58876;51.994;4.472;2022-09-02T03:28:02;1443.66;;;1443.66;;
71174;SDS011;58876;51.994;4.472;2022-09-02T03:30:29;1488.31;;;1488.31;;
71174;SDS011;58876;51.994;4.472;2022-09-02T03:32:59;1537.08;;;1537.08;;
71174;SDS011;58876;51.994;4.472;2022-09-02T03:35:27;1522.22;;;1522.22;;
71174;SDS011;58876;51.994;4.472;2022-09-02T03:37:54;1532.82;;;1532.82;;
71174;SDS011;58876;51.994;4.472;2022-09-02T03:40:21;1457.80;;;1457.80;;
71174;SDS011;58876;51.994;4.472;2022-09-02T03:42:48;1507.85;;;1507.85;;
71174;SDS011;58876;51.994;4.472;2022-09-02T03:45:14;1706.37;;;1706.37;;
71174;SDS011;58876;51.994;4.472;2022-09-02T03:47:41;1636.98;;;1636.98;;
71174;SDS011;58876;51.994;4.472;2022-09-02T03:50:18;1620.19;;;1620.19;;
71174;SDS011;58876;51.994;4.472;2022-09-02T03:52:47;1681.14;;;1681.14;;
71174;SDS011;58876;51.994;4.472;2022-09-02T03:55:13;1770.70;;;1770.70;;
71174;SDS011;58876;51.994;4.472;2022-09-02T03:57:40;1646.47;;;1646.47;;
71174;SDS011;58876;51.994;4.472;2022-09-02T04:00:06;1773.04;;;1773.04;;
71174;SDS011;58876;51.994;4.472;2022-09-02T04:02:33;1778.74;;;1778.74;;
71174;SDS011;58876;51.994;4.472;2022-09-02T04:04:59;1762.61;;;1762.61;;
71174;SDS011;58876;51.994;4.472;2022-09-02T04:07:25;1693.90;;;1693.90;;
71174;SDS011;58876;51.994;4.472;2022-09-02T04:09:50;1658.72;;;1658.72;;
71174;SDS011;58876;51.994;4.472;2022-09-02T04:12:16;1643.51;;;1643.51;;
71174;SDS011;58876;51.994;4.472;2022-09-02T04:14:41;1643.70;;;1643.70;;
71174;SDS011;58876;51.994;4.472;2022-09-02T04:17:06;1670.74;;;1670.74;;
71174;SDS011;58876;51.994;4.472;2022-09-02T04:19:32;1518.11;;;1518.11;;
71174;SDS011;58876;51.994;4.472;2022-09-02T04:21:58;1445.88;;;1445.88;;
71174;SDS011;58876;51.994;4.472;2022-09-02T04:24:24;1435.04;;;1435.04;;
71174;SDS011;58876;51.994;4.472;2022-09-02T04:26:50;1433.09;;;1433.09;;
71174;SDS011;58876;51.994;4.472;2022-09-02T04:29:16;1455.32;;;1455.32;;
71174;SDS011;58876;51.994;4.472;2022-09-02T04:31:42;1542.81;;;1542.81;;
71174;SDS011;58876;51.994;4.472;2022-09-02T04:34:07;1547.02;;;1547.02;;
71174;SDS011;58876;51.994;4.472;2022-09-02T04:36:33;1638.53;;;1638.53;;
71174;SDS011;58876;51.994;4.472;2022-09-02T04:38:59;1664.48;;;1664.48;;
71174;SDS011;58876;51.994;4.472;2022-09-02T04:41:27;1725.84;;;1725.84;;
71174;SDS011;58876;51.994;4.472;2022-09-02T04:43:55;1793.74;;;1793.74;;
71174;SDS011;58876;51.994;4.472;2022-09-02T04:46:22;1705.58;;;1705.58;;
71174;SDS011;58876;51.994;4.472;2022-09-02T04:48:48;1683.83;;;1683.83;;
71174;SDS011;58876;51.994;4.472;2022-09-02T04:51:15;1629.92;;;1629.92;;
71174;SDS011;58876;51.994;4.472;2022-09-02T04:53:48;1622.77;;;1622.77;;
71174;SDS011;58876;51.994;4.472;2022-09-02T04:56:18;1587.96;;;1587.96;;
71174;SDS011;58876;51.994;4.472;2022-09-02T04:58:46;1617.91;;;1617.91;;
71174;SDS011;58876;51.994;4.472;2022-09-02T05:01:17;1522.00;;;1522.00;;
71174;SDS011;58876;51.994;4.472;2022-09-02T05:03:46;1483.05;;;1483.05;;
71174;SDS011;58876;51.994;4.472;2022-09-02T05:06:17;1565.75;;;1565.75;;
71174;SDS011;58876;51.994;4.472;2022-09-02T05:08:46;1549.44;;;1549.44;;
71174;SDS011;58876;51.994;4.472;2022-09-02T05:11:13;1501.21;;;1501.21;;
71174;SDS011;58876;51.994;4.472;2022-09-02T05:13:42;1623.16;;;1623.16;;
71174;SDS011;58876;51.994;4.472;2022-09-02T05:16:19;1666.52;;;1666.52;;
71174;SDS011;58876;51.994;4.472;2022-09-02T05:18:47;1833.54;;;1833.54;;
71174;SDS011;58876;51.994;4.472;2022-09-02T05:21:14;1637.07;;;1637.07;;
71174;SDS011;58876;51.994;4.472;2022-09-02T05:23:40;1541.66;;;1541.66;;
71174;SDS011;58876;51.994;4.472;2022-09-02T05:26:06;1525.17;;;1525.17;;
71174;SDS011;58876;51.994;4.472;2022-09-02T05:28:34;1540.77;;;1540.77;;
71174;SDS011;58876;51.994;4.472;2022-09-02T05:31:02;1559.23;;;1559.23;;
71174;SDS011;58876;51.994;4.472;2022-09-02T05:33:33;1666.67;;;1666.67;;
71174;SDS011;58876;51.994;4.472;2022-09-02T05:36:05;1583.61;;;1583.61;;
71174;SDS011;58876;51.994;4.472;2022-09-02T05:38:32;1656.37;;;1656.37;;
71174;SDS011;58876;51.994;4.472;2022-09-02T05:41:03;1617.53;;;1617.53;;
71174;SDS011;58876;51.994;4.472;2022-09-02T05:43:35;1721.25;;;1721.25;;
71174;SDS011;58876;51.994;4.472;2022-09-02T05:46:06;1516.46;;;1516.46;;
71174;SDS011;58876;51.994;4.472;2022-09-02T05:48:34;1415.17;;;1415.17;;
71174;SDS011;58876;51.994;4.472;2022-09-02T05:51:20;1390.63;;;1390.63;;
71174;SDS011;58876;51.994;4.472;2022-09-02T05:53:50;1541.85;;;1541.85;;
71174;SDS011;58876;51.994;4.472;2022-09-02T05:56:17;1511.62;;;1511.62;;
71174;SDS011;58876;51.994;4.472;2022-09-02T05:58:43;1396.41;;;1396.41;;
71174;SDS011;58876;51.994;4.472;2022-09-02T06:01:09;1405.56;;;1405.56;;
71174;SDS011;58876;51.994;4.472;2022-09-02T06:03:37;1386.61;;;1386.61;;
71174;SDS011;58876;51.994;4.472;2022-09-02T06:06:03;1385.05;;;1385.05;;
71174;SDS011;58876;51.994;4.472;2022-09-02T06:08:31;1319.28;;;1319.28;;
71174;SDS011;58876;51.994;4.472;2022-09-02T06:10:57;1279.07;;;1279.07;;
71174;SDS011;58876;51.994;4.472;2022-09-02T06:13:30;1249.52;;;1249.52;;
71174;SDS011;58876;51.994;4.472;2022-09-02T06:16:01;1112.17;;;1112.17;;
71174;SDS011;58876;51.994;4.472;2022-09-02T06:18:28;1067.31;;;1067.31;;
71174;SDS011;58876;51.994;4.472;2022-09-02T06:20:54;998.65;;;998.65;;
71174;SDS011;58876;51.994;4.472;2022-09-02T06:23:19;795.77;;;795.77;;
71174;SDS011;58876;51.994;4.472;2022-09-02T06:25:45;629.85;;;629.85;;
71174;SDS011;58876;51.994;4.472;2022-09-02T06:28:12;610.90;;;610.90;;
71174;SDS011;58876;51.994;4.472;2022-09-02T06:30:40;529.32;;;529.32;;
71174;SDS011;58876;51.994;4.472;2022-09-02T06:33:08;420.36;;;420.36;;
71174;SDS011;58876;51.994;4.472;2022-09-02T06:35:38;449.54;;;449.54;;
71174;SDS011;58876;51.994;4.472;2022-09-02T06:38:06;586.30;;;586.30;;
71174;SDS011;58876;51.994;4.472;2022-09-02T06:40:32;674.37;;;674.37;;
71174;SDS011;58876;51.994;4.472;2022-09-02T06:43:10;639.08;;;639.08;;
71174;SDS011;58876;51.994;4.472;2022-09-02T06:45:39;678.41;;;678.41;;
71174;SDS011;58876;51.994;4.472;2022-09-02T06:48:05;799.42;;;799.42;;
71174;SDS011;58876;51.994;4.472;2022-09-02T06:50:30;777.77;;;777.77;;
71174;SDS011;58876;51.994;4.472;2022-09-02T06:52:57;689.58;;;689.58;;
71174;SDS011;58876;51.994;4.472;2022-09-02T06:55:23;691.54;;;691.54;;
71174;SDS011;58876;51.994;4.472;2022-09-02T06:57:48;605.59;;;605.59;;
71174;SDS011;58876;51.994;4.472;2022-09-02T07:00:14;395.55;;;395.55;;
71174;SDS011;58876;51.994;4.472;2022-09-02T07:02:41;270.28;;;270.28;;
71174;SDS011;58876;51.994;4.472;2022-09-02T07:05:07;229.68;;;229.68;;
71174;SDS011;58876;51.994;4.472;2022-09-02T07:07:37;219.93;;;219.93;;
71174;SDS011;58876;51.994;4.472;2022-09-02T07:10:05;358.74;;;358.74;;
71174;SDS011;58876;51.994;4.472;2022-09-02T07:12:34;260.38;;;260.38;;
71174;SDS011;58876;51.994;4.472;2022-09-02T07:15:01;220.43;;;220.43;;
71174;SDS011;58876;51.994;4.472;2022-09-02T07:17:27;242.93;;;242.93;;
71174;SDS011;58876;51.994;4.472;2022-09-02T07:19:53;227.01;;;227.01;;
71174;SDS011;58876;51.994;4.472;2022-09-02T07:22:21;214.73;;;214.73;;
71174;SDS011;58876;51.994;4.472;2022-09-02T07:24:47;205.89;;;205.89;;
71174;SDS011;58876;51.994;4.472;2022-09-02T07:27:12;205.27;;;205.27;;
71174;SDS011;58876;51.994;4.472;2022-09-02T07:29:38;208.27;;;208.27;;
71174;SDS011;58876;51.994;4.472;2022-09-02T07:32:06;202.38;;;202.38;;
71174;SDS011;58876;51.994;4.472;2022-09-02T07:34:31;211.35;;;211.35;;
71174;SDS011;58876;51.994;4.472;2022-09-02T07:36:57;222.88;;;222.88;;
71174;SDS011;58876;51.994;4.472;2022-09-02T07:39:22;216.92;;;216.92;;
71174;SDS011;58876;51.994;4.472;2022-09-02T07:41:49;198.42;;;198.42;;
71174;SDS011;58876;51.994;4.472;2022-09-02T07:44:16;207.96;;;207.96;;
71174;SDS011;58876;51.994;4.472;2022-09-02T07:46:43;385.17;;;385.17;;
71174;SDS011;58876;51.994;4.472;2022-09-02T07:49:10;503.77;;;503.77;;
71174;SDS011;58876;51.994;4.472;2022-09-02T07:51:38;482.27;;;482.27;;
71174;SDS011;58876;51.994;4.472;2022-09-02T07:54:06;274.43;;;274.43;;
71174;SDS011;58876;51.994;4.472;2022-09-02T07:56:35;285.80;;;285.80;;
71174;SDS011;58876;51.994;4.472;2022-09-02T07:59:00;175.94;;;175.94;;
71174;SDS011;58876;51.994;4.472;2022-09-02T08:01:27;167.28;;;167.28;;
71174;SDS011;58876;51.994;4.472;2022-09-02T08:03:53;324.26;;;324.26;;
71174;SDS011;58876;51.994;4.472;2022-09-02T08:06:19;216.90;;;216.90;;
71174;SDS011;58876;51.994;4.472;2022-09-02T08:08:48;169.43;;;169.43;;
71174;SDS011;58876;51.994;4.472;2022-09-02T08:11:13;134.50;;;134.50;;
71174;SDS011;58876;51.994;4.472;2022-09-02T08:13:39;164.51;;;164.51;;
71174;SDS011;58876;51.994;4.472;2022-09-02T08:16:04;188.15;;;188.15;;
71174;SDS011;58876;51.994;4.472;2022-09-02T08:18:30;149.43;;;149.43;;
71174;SDS011;58876;51.994;4.472;2022-09-02T08:20:56;149.76;;;149.76;;
71174;SDS011;58876;51.994;4.472;2022-09-02T08:23:24;129.80;;;129.80;;
71174;SDS011;58876;51.994;4.472;2022-09-02T08:25:49;145.00;;;145.00;;
71174;SDS011;58876;51.994;4.472;2022-09-02T08:28:14;240.22;;;240.22;;
71174;SDS011;58876;51.994;4.472;2022-09-02T08:30:40;329.42;;;329.42;;
71174;SDS011;58876;51.994;4.472;2022-09-02T08:33:06;372.16;;;372.16;;
71174;SDS011;58876;51.994;4.472;2022-09-02T08:35:32;405.27;;;405.27;;
71174;SDS011;58876;51.994;4.472;2022-09-02T08:37:59;203.66;;;203.66;;
71174;SDS011;58876;51.994;4.472;2022-09-02T08:40:27;133.25;;;133.25;;
71174;SDS011;58876;51.994;4.472;2022-09-02T08:43:04;144.88;;;144.88;;
71174;SDS011;58876;51.994;4.472;2022-09-02T08:45:51;189.69;;;189.69;;
71174;SDS011;58876;51.994;4.472;2022-09-02T08:51:04;140.74;;;140.74;;
71174;SDS011;58876;51.994;4.472;2022-09-02T08:53:35;139.16;;;139.16;;
71174;SDS011;58876;51.994;4.472;2022-09-02T08:56:10;201.87;;;201.87;;
71174;SDS011;58876;51.994;4.472;2022-09-02T08:58:42;170.49;;;170.49;;
71174;SDS011;58876;51.994;4.472;2022-09-02T09:09:26;154.96;;;154.96;;
71174;SDS011;58876;51.994;4.472;2022-09-02T09:15:14;213.81;;;213.81;;
71174;SDS011;58876;51.994;4.472;2022-09-02T09:18:06;171.70;;;171.70;;
71174;SDS011;58876;51.994;4.472;2022-09-02T09:20:38;227.97;;;227.97;;
71174;SDS011;58876;51.994;4.472;2022-09-02T09:26:05;207.31;;;207.31;;
71174;SDS011;58876;51.994;4.472;2022-09-02T09:28:40;133.53;;;133.53;;
71174;SDS011;58876;51.994;4.472;2022-09-02T09:31:09;157.07;;;157.07;;
71174;SDS011;58876;51.994;4.472;2022-09-02T09:33:56;238.73;;;238.73;;
71174;SDS011;58876;51.994;4.472;2022-09-02T09:36:47;177.03;;;177.03;;
71174;SDS011;58876;51.994;4.472;2022-09-02T09:42:00;309.27;;;309.27;;
71174;SDS011;58876;51.994;4.472;2022-09-02T09:47:02;198.97;;;198.97;;
71174;SDS011;58876;51.994;4.472;2022-09-02T09:50:04;185.78;;;185.78;;
71174;SDS011;58876;51.994;4.472;2022-09-02T09:52:36;199.63;;;199.63;;
71174;SDS011;58876;51.994;4.472;2022-09-02T09:55:06;202.21;;;202.21;;
71174;SDS011;58876;51.994;4.472;2022-09-02T09:57:37;171.16;;;171.16;;
71174;SDS011;58876;51.994;4.472;2022-09-02T10:02:47;162.64;;;162.64;;
71174;SDS011;58876;51.994;4.472;2022-09-02T10:05:16;292.45;;;292.45;;
71174;SDS011;58876;51.994;4.472;2022-09-02T10:07:43;228.20;;;228.20;;
71174;SDS011;58876;51.994;4.472;2022-09-02T10:10:22;154.29;;;154.29;;
71174;SDS011;58876;51.994;4.472;2022-09-02T10:12:50;175.15;;;175.15;;
71174;SDS011;58876;51.994;4.472;2022-09-02T10:15:22;323.70;;;323.70;;
71174;SDS011;58876;51.994;4.472;2022-09-02T10:18:10;297.03;;;297.03;;
71174;SDS011;58876;51.994;4.472;2022-09-02T10:21:00;177.78;;;177.78;;
71174;SDS011;58876;51.994;4.472;2022-09-02T10:26:29;160.85;;;160.85;;
71174;SDS011;58876;51.994;4.472;2022-09-02T10:29:14;568.61;;;568.61;;
71174;SDS011;58876;51.994;4.472;2022-09-02T10:35:08;151.76;;;151.76;;
71174;SDS011;58876;51.994;4.472;2022-09-02T10:40:41;123.60;;;123.60;;
71174;SDS011;58876;51.994;4.472;2022-09-02T10:46:20;135.97;;;135.97;;
71174;SDS011;58876;51.994;4.472;2022-09-02T10:56:48;394.52;;;394.52;;
71174;SDS011;58876;51.994;4.472;2022-09-02T10:59:34;553.28;;;553.28;;
71174;SDS011;58876;51.994;4.472;2022-09-02T11:02:12;442.51;;;442.51;;
71174;SDS011;58876;51.994;4.472;2022-09-02T11:07:17;128.81;;;128.81;;
71174;SDS011;58876;51.994;4.472;2022-09-02T11:09:56;624.51;;;624.51;;
71174;SDS011;58876;51.994;4.472;2022-09-02T11:17:43;187.12;;;187.12;;
71174;SDS011;58876;51.994;4.472;2022-09-02T11:20:30;344.57;;;344.57;;
71174;SDS011;58876;51.994;4.472;2022-09-02T11:26:19;99.24;;;99.24;;
71174;SDS011;58876;51.994;4.472;2022-09-02T11:28:57;100.01;;;100.01;;
71174;SDS011;58876;51.994;4.472;2022-09-02T11:31:45;199.64;;;199.64;;
71174;SDS011;58876;51.994;4.472;2022-09-02T11:37:07;105.61;;;105.61;;
71174;SDS011;58876;51.994;4.472;2022-09-02T11:39:41;102.07;;;102.07;;
71174;SDS011;58876;51.994;4.472;2022-09-02T11:42:26;87.69;;;87.69;;
71174;SDS011;58876;51.994;4.472;2022-09-02T11:47:40;201.60;;;201.60;;
71174;SDS011;58876;51.994;4.472;2022-09-02T11:50:18;186.49;;;186.49;;
71174;SDS011;58876;51.994;4.472;2022-09-02T11:53:55;111.20;;;111.20;;
71174;SDS011;58876;51.994;4.472;2022-09-02T11:58:44;122.10;;;122.10;;
71174;SDS011;58876;51.994;4.472;2022-09-02T12:04:40;121.07;;;121.07;;
71174;SDS011;58876;51.994;4.472;2022-09-02T12:06:34;102.13;;;102.13;;
71174;SDS011;58876;51.994;4.472;2022-09-02T12:09:02;119.37;;;119.37;;
71174;SDS011;58876;51.994;4.472;2022-09-02T12:11:36;118.26;;;118.26;;
71174;SDS011;58876;51.994;4.472;2022-09-02T12:14:06;137.64;;;137.64;;
71174;SDS011;58876;51.994;4.472;2022-09-02T12:16:39;138.07;;;138.07;;
71174;SDS011;58876;51.994;4.472;2022-09-02T12:22:20;90.43;;;90.43;;
71174;SDS011;58876;51.994;4.472;2022-09-02T12:24:55;100.90;;;100.90;;
71174;SDS011;58876;51.994;4.472;2022-09-02T12:27:29;122.77;;;122.77;;
71174;SDS011;58876;51.994;4.472;2022-09-02T12:29:58;111.36;;;111.36;;
71174;SDS011;58876;51.994;4.472;2022-09-02T12:35:31;112.36;;;112.36;;
71174;SDS011;58876;51.994;4.472;2022-09-02T12:40:40;95.32;;;95.32;;
71174;SDS011;58876;51.994;4.472;2022-09-02T12:48:57;99.30;;;99.30;;
71174;SDS011;58876;51.994;4.472;2022-09-02T12:51:49;98.35;;;98.35;;
71174;SDS011;58876;51.994;4.472;2022-09-02T12:54:46;110.20;;;110.20;;
71174;SDS011;58876;51.994;4.472;2022-09-02T12:57:17;114.20;;;114.20;;
71174;SDS011;58876;51.994;4.472;2022-09-02T12:59:43;98.59;;;98.59;;
71174;SDS011;58876;51.994;4.472;2022-09-02T13:05:48;139.70;;;139.70;;
71174;SDS011;58876;51.994;4.472;2022-09-02T13:13:57;89.68;;;89.68;;
71174;SDS011;58876;51.994;4.472;2022-09-02T13:16:37;94.88;;;94.88;;
71174;SDS011;58876;51.994;4.472;2022-09-02T13:22:24;89.30;;;89.30;;
71174;SDS011;58876;51.994;4.472;2022-09-02T13:36:26;239.44;;;239.44;;
71174;SDS011;58876;51.994;4.472;2022-09-02T13:38:54;225.86;;;225.86;;
71174;SDS011;58876;51.994;4.472;2022-09-02T13:41:30;215.08;;;215.08;;
71174;SDS011;58876;51.994;4.472;2022-09-02T13:47:01;254.59;;;254.59;;
71174;SDS011;58876;51.994;4.472;2022-09-02T13:49:41;252.62;;;252.62;;
71174;SDS011;58876;51.994;4.472;2022-09-02T13:52:21;319.25;;;319.25;;
71174;SDS011;58876;51.994;4.472;2022-09-02T13:54:49;306.25;;;306.25;;
71174;SDS011;58876;51.994;4.472;2022-09-02T13:57:21;284.42;;;284.42;;
71174;SDS011;58876;51.994;4.472;2022-09-02T13:59:50;307.27;;;307.27;;
71174;SDS011;58876;51.994;4.472;2022-09-02T14:02:23;294.50;;;294.50;;
71174;SDS011;58876;51.994;4.472;2022-09-02T14:05:06;325.61;;;325.61;;
71174;SDS011;58876;51.994;4.472;2022-09-02T14:07:42;326.29;;;326.29;;
71174;SDS011;58876;51.994;4.472;2022-09-02T14:10:12;333.92;;;333.92;;
71174;SDS011;58876;51.994;4.472;2022-09-02T14:12:42;329.31;;;329.31;;
71174;SDS011;58876;51.994;4.472;2022-09-02T14:15:11;288.03;;;288.03;;
71174;SDS011;58876;51.994;4.472;2022-09-02T14:17:38;258.56;;;258.56;;
71174;SDS011;58876;51.994;4.472;2022-09-02T14:20:08;247.47;;;247.47;;
71174;SDS011;58876;51.994;4.472;2022-09-02T14:22:35;300.01;;;300.01;;
71174;SDS011;58876;51.994;4.472;2022-09-02T14:25:11;273.98;;;273.98;;
71174;SDS011;58876;51.994;4.472;2022-09-02T14:27:39;243.72;;;243.72;;
71174;SDS011;58876;51.994;4.472;2022-09-02T14:35:54;262.78;;;262.78;;
71174;SDS011;58876;51.994;4.472;2022-09-02T14:38:28;274.98;;;274.98;;
71174;SDS011;58876;51.994;4.472;2022-09-02T14:43:57;277.11;;;277.11;;
71174;SDS011;58876;51.994;4.472;2022-09-02T14:46:32;282.72;;;282.72;;
71174;SDS011;58876;51.994;4.472;2022-09-02T14:49:16;275.14;;;275.14;;
71174;SDS011;58876;51.994;4.472;2022-09-02T14:51:45;253.80;;;253.80;;
71174;SDS011;58876;51.994;4.472;2022-09-02T14:57:04;243.49;;;243.49;;
71174;SDS011;58876;51.994;4.472;2022-09-02T14:59:45;263.61;;;263.61;;
71174;SDS011;58876;51.994;4.472;2022-09-02T15:05:01;249.26;;;249.26;;
71174;SDS011;58876;51.994;4.472;2022-09-02T15:07:30;268.20;;;268.20;;
71174;SDS011;58876;51.994;4.472;2022-09-02T15:09:56;264.23;;;264.23;;
71174;SDS011;58876;51.994;4.472;2022-09-02T15:12:23;242.60;;;242.60;;
71174;SDS011;58876;51.994;4.472;2022-09-02T15:14:54;238.17;;;238.17;;
71174;SDS011;58876;51.994;4.472;2022-09-02T15:17:20;237.39;;;237.39;;
71174;SDS011;58876;51.994;4.472;2022-09-02T15:22:39;243.52;;;243.52;;
71174;SDS011;58876;51.994;4.472;2022-09-02T15:25:05;237.23;;;237.23;;
71174;SDS011;58876;51.994;4.472;2022-09-02T15:27:34;235.34;;;235.34;;
71174;SDS011;58876;51.994;4.472;2022-09-02T15:30:01;243.57;;;243.57;;
71174;SDS011;58876;51.994;4.472;2022-09-02T15:32:31;250.78;;;250.78;;
71174;SDS011;58876;51.994;4.472;2022-09-02T15:34:57;254.46;;;254.46;;
71174;SDS011;58876;51.994;4.472;2022-09-02T15:37:22;287.35;;;287.35;;
71174;SDS011;58876;51.994;4.472;2022-09-02T15:39:49;267.70;;;267.70;;
71174;SDS011;58876;51.994;4.472;2022-09-02T15:42:14;248.47;;;248.47;;
71174;SDS011;58876;51.994;4.472;2022-09-02T15:44:42;255.71;;;255.71;;
71174;SDS011;58876;51.994;4.472;2022-09-02T15:47:07;183.09;;;183.09;;
71174;SDS011;58876;51.994;4.472;2022-09-02T15:49:33;170.54;;;170.54;;
71174;SDS011;58876;51.994;4.472;2022-09-02T15:51:59;187.66;;;187.66;;
71174;SDS011;58876;51.994;4.472;2022-09-02T15:54:25;171.62;;;171.62;;
71174;SDS011;58876;51.994;4.472;2022-09-02T15:56:54;159.06;;;159.06;;
71174;SDS011;58876;51.994;4.472;2022-09-02T15:59:21;185.51;;;185.51;;
71174;SDS011;58876;51.994;4.472;2022-09-02T16:01:48;146.83;;;146.83;;
71174;SDS011;58876;51.994;4.472;2022-09-02T16:04:16;122.77;;;122.77;;
71174;SDS011;58876;51.994;4.472;2022-09-02T16:06:43;147.02;;;147.02;;
71174;SDS011;58876;51.994;4.472;2022-09-02T16:09:12;168.48;;;168.48;;
71174;SDS011;58876;51.994;4.472;2022-09-02T16:11:39;180.76;;;180.76;;